GEC490 HESH-OMDB
Flight info
| Callsign | GEC490 |
|---|---|
| Flight time | 2h 35m |
| Altitude | 35000 |
| Route | NOVPA2L NOVPA DCT TBK DCT SOBAS DCT HIL DCT GAS DCT MGA DCT HSA DCT DOH DCT SIR DCT VUTEB |
| Aircraft | MD11/H-SDE1E2E3FGHIJ2J3J4J5M1RWXY/LB1D1 |
Departure
| Time | 2026-04-25 19:14 |
|---|---|
| Airport | Sharm El Sheikh International Airport (HESH) |
Arrival
| Time | 2026-04-25 21:49 |
|---|---|
| Airport | Dubai International Airport (OMDB) |
| Time | Latitude | Longitude | Altitude | Speed | Heading |
|---|---|---|---|---|---|
| 2026-04-25 18:41 | 27.98819 | 34.39834 | 176 ft | 0 kts | 223° |
| 2026-04-25 19:09 | 27.98772 | 34.39801 | 177 ft | 7 kts | 201° |
| 2026-04-25 19:09 | 27.98732 | 34.39784 | 176 ft | 10 kts | 196° |
| 2026-04-25 19:09 | 27.98586 | 34.39769 | 174 ft | 10 kts | 223° |
| 2026-04-25 19:10 | 27.98523 | 34.39703 | 175 ft | 13 kts | 222° |
| 2026-04-25 19:10 | 27.98449 | 34.39627 | 177 ft | 15 kts | 222° |
| 2026-04-25 19:10 | 27.98367 | 34.39542 | 180 ft | 16 kts | 222° |
| 2026-04-25 19:10 | 27.98282 | 34.39453 | 183 ft | 16 kts | 223° |
| 2026-04-25 19:11 | 27.98193 | 34.39359 | 186 ft | 17 kts | 223° |
| 2026-04-25 19:11 | 27.98101 | 34.39263 | 189 ft | 18 kts | 222° |
| 2026-04-25 19:11 | 27.97996 | 34.39154 | 191 ft | 22 kts | 223° |
| 2026-04-25 19:11 | 27.97872 | 34.39025 | 194 ft | 25 kts | 223° |
| 2026-04-25 19:12 | 27.97727 | 34.38875 | 193 ft | 30 kts | 222° |
| 2026-04-25 19:12 | 27.97560 | 34.38701 | 190 ft | 36 kts | 223° |
| 2026-04-25 19:12 | 27.97417 | 34.38575 | 188 ft | 13 kts | 169° |
| 2026-04-25 19:12 | 27.97338 | 34.38663 | 181 ft | 19 kts | 127° |
| 2026-04-25 19:13 | 27.97339 | 34.38777 | 181 ft | 15 kts | 45° |
| 2026-04-25 19:13 | 27.97351 | 34.38790 | 181 ft | 0 kts | 43° |
| 2026-04-25 19:13 | 27.97354 | 34.38793 | 181 ft | 1 kts | 43° |
| 2026-04-25 19:13 | 27.97490 | 34.38937 | 183 ft | 65 kts | 43° |
| 2026-04-25 19:14 | 27.98034 | 34.39503 | 176 ft | 143 kts | 43° |
| 2026-04-25 19:14 | 27.98585 | 34.40078 | 203 ft | 177 kts | 44° |
| 2026-04-25 19:14 | 27.99828 | 34.41277 | 982 ft | 181 kts | 36° |
| 2026-04-25 19:14 | 28.00960 | 34.41962 | 1635 ft | 188 kts | 16° |
| 2026-04-25 19:15 | 28.02265 | 34.42342 | 2129 ft | 204 kts | 14° |
| 2026-04-25 19:15 | 28.03662 | 34.42892 | 2554 ft | 220 kts | 22° |
| 2026-04-25 19:15 | 28.05059 | 34.43619 | 3168 ft | 227 kts | 25° |
| 2026-04-25 19:15 | 28.06542 | 34.44447 | 3580 ft | 248 kts | 25° |
| 2026-04-25 19:16 | 28.08113 | 34.45364 | 4183 ft | 262 kts | 26° |
| 2026-04-25 19:16 | 28.09715 | 34.46362 | 4981 ft | 267 kts | 27° |
| 2026-04-25 19:16 | 28.11346 | 34.47367 | 5715 ft | 273 kts | 25° |
| 2026-04-25 19:16 | 28.13106 | 34.48191 | 6527 ft | 274 kts | 13° |
| 2026-04-25 19:17 | 28.14980 | 34.48514 | 7308 ft | 276 kts | 0° |
| 2026-04-25 19:17 | 28.16898 | 34.48522 | 8100 ft | 278 kts | 358° |
| 2026-04-25 19:17 | 28.18843 | 34.48500 | 8876 ft | 282 kts | 358° |
| 2026-04-25 19:17 | 28.20814 | 34.48502 | 9622 ft | 286 kts | 359° |
| 2026-04-25 19:18 | 28.22814 | 34.48604 | 10240 ft | 296 kts | 3° |
| 2026-04-25 19:18 | 28.24946 | 34.48950 | 10570 ft | 317 kts | 9° |
| 2026-04-25 19:18 | 28.27121 | 34.49458 | 11256 ft | 329 kts | 9° |
| 2026-04-25 19:18 | 28.29467 | 34.50014 | 11416 ft | 360 kts | 9° |
| 2026-04-25 19:19 | 28.32023 | 34.50613 | 11664 ft | 385 kts | 9° |
| 2026-04-25 19:19 | 28.34695 | 34.51237 | 12293 ft | 397 kts | 9° |
| 2026-04-25 19:19 | 28.37411 | 34.51868 | 13066 ft | 404 kts | 9° |
| 2026-04-25 19:19 | 28.39257 | 34.52297 | 13572 ft | 409 kts | 9° |
| 2026-04-25 19:20 | 28.43029 | 34.53169 | 14642 ft | 417 kts | 9° |
| 2026-04-25 19:20 | 28.45855 | 34.53823 | 15396 ft | 423 kts | 8° |
| 2026-04-25 19:20 | 28.48764 | 34.54496 | 16149 ft | 429 kts | 8° |
| 2026-04-25 19:20 | 28.51692 | 34.55171 | 16912 ft | 434 kts | 8° |
| 2026-04-25 19:21 | 28.54657 | 34.55856 | 17620 ft | 439 kts | 8° |
| 2026-04-25 19:21 | 28.60744 | 34.57263 | 19096 ft | 449 kts | 8° |
| 2026-04-25 19:21 | 28.63829 | 34.57976 | 19823 ft | 454 kts | 8° |
| 2026-04-25 19:22 | 28.66910 | 34.58688 | 20517 ft | 458 kts | 8° |
| 2026-04-25 19:22 | 28.70032 | 34.59410 | 21180 ft | 463 kts | 8° |
| 2026-04-25 19:22 | 28.76431 | 34.60887 | 22556 ft | 473 kts | 8° |
| 2026-04-25 19:23 | 28.79678 | 34.61637 | 23214 ft | 477 kts | 8° |
| 2026-04-25 19:23 | 28.86215 | 34.63150 | 24480 ft | 487 kts | 7° |
| 2026-04-25 19:23 | 28.89548 | 34.63921 | 25077 ft | 491 kts | 7° |
| 2026-04-25 19:24 | 28.92942 | 34.64713 | 25655 ft | 495 kts | 7° |
| 2026-04-25 19:24 | 28.96305 | 34.65499 | 26214 ft | 498 kts | 7° |
| 2026-04-25 19:24 | 29.03065 | 34.67489 | 27201 ft | 512 kts | 18° |
| 2026-04-25 19:25 | 29.09365 | 34.71629 | 28135 ft | 527 kts | 33° |
| 2026-04-25 19:25 | 29.12348 | 34.74102 | 28610 ft | 530 kts | 33° |
| 2026-04-25 19:25 | 29.15325 | 34.76535 | 29263 ft | 528 kts | 32° |
| 2026-04-25 19:26 | 29.18347 | 34.78959 | 29841 ft | 528 kts | 32° |
| 2026-04-25 19:26 | 29.21350 | 34.81347 | 30339 ft | 527 kts | 31° |
| 2026-04-25 19:26 | 29.24364 | 34.83728 | 30826 ft | 528 kts | 30° |
| 2026-04-25 19:26 | 29.27433 | 34.86241 | 31128 ft | 534 kts | 35° |
| 2026-04-25 19:27 | 29.30191 | 34.89211 | 31527 ft | 540 kts | 45° |
| 2026-04-25 19:27 | 29.31781 | 34.91423 | 31766 ft | 544 kts | 52° |
| 2026-04-25 19:27 | 29.34380 | 34.96461 | 32182 ft | 550 kts | 65° |
| 2026-04-25 19:27 | 29.35707 | 35.00545 | 32463 ft | 554 kts | 74° |
| 2026-04-25 19:28 | 29.36496 | 35.04868 | 32766 ft | 555 kts | 84° |
| 2026-04-25 19:28 | 29.36709 | 35.09286 | 32992 ft | 555 kts | 94° |
| 2026-04-25 19:28 | 29.36335 | 35.13682 | 33189 ft | 554 kts | 104° |
| 2026-04-25 19:28 | 29.35383 | 35.17959 | 33464 ft | 550 kts | 114° |
| 2026-04-25 19:29 | 29.33894 | 35.21973 | 33747 ft | 544 kts | 123° |
| 2026-04-25 19:29 | 29.31925 | 35.25610 | 33967 ft | 536 kts | 134° |
| 2026-04-25 19:29 | 29.29497 | 35.28859 | 34319 ft | 524 kts | 143° |
| 2026-04-25 19:29 | 29.26750 | 35.31558 | 34522 ft | 514 kts | 153° |
| 2026-04-25 19:30 | 29.23781 | 35.33729 | 34696 ft | 508 kts | 159° |
| 2026-04-25 19:30 | 29.20697 | 35.35717 | 35036 ft | 505 kts | 161° |
| 2026-04-25 19:30 | 29.14807 | 35.40407 | 35087 ft | 528 kts | 145° |
| 2026-04-25 19:31 | 29.09943 | 35.46793 | 35107 ft | 541 kts | 135° |
| 2026-04-25 19:31 | 29.05440 | 35.53719 | 35100 ft | 543 kts | 133° |
| 2026-04-25 19:32 | 29.01006 | 35.60692 | 35075 ft | 543 kts | 133° |
| 2026-04-25 19:32 | 28.97310 | 35.66508 | 35093 ft | 542 kts | 134° |
| 2026-04-25 19:33 | 28.92132 | 35.74644 | 35069 ft | 542 kts | 134° |
| 2026-04-25 19:33 | 28.87708 | 35.81605 | 35069 ft | 545 kts | 134° |
| 2026-04-25 19:34 | 28.83274 | 35.88585 | 35061 ft | 545 kts | 134° |
| 2026-04-25 19:34 | 28.78823 | 35.95568 | 35039 ft | 544 kts | 135° |
| 2026-04-25 19:35 | 28.74308 | 36.02475 | 35060 ft | 546 kts | 135° |
| 2026-04-25 19:35 | 28.69799 | 36.09412 | 35045 ft | 548 kts | 134° |
| 2026-04-25 19:36 | 28.65253 | 36.16420 | 35033 ft | 548 kts | 134° |
| 2026-04-25 19:36 | 28.60748 | 36.23371 | 35044 ft | 547 kts | 135° |
| 2026-04-25 19:37 | 28.56222 | 36.30351 | 35039 ft | 548 kts | 134° |
| 2026-04-25 19:37 | 28.51721 | 36.37305 | 35035 ft | 549 kts | 134° |
| 2026-04-25 19:38 | 28.47199 | 36.44300 | 35051 ft | 548 kts | 134° |
| 2026-04-25 19:38 | 28.42723 | 36.51223 | 35033 ft | 547 kts | 134° |
| 2026-04-25 19:39 | 28.38252 | 36.58232 | 35018 ft | 552 kts | 130° |
| 2026-04-25 19:39 | 28.36376 | 36.62072 | 35046 ft | 565 kts | 120° |
| 2026-04-25 19:39 | 28.34965 | 36.66245 | 35018 ft | 575 kts | 111° |
| 2026-04-25 19:40 | 28.33545 | 36.75264 | 35032 ft | 584 kts | 100° |
| 2026-04-25 19:40 | 28.32414 | 36.84347 | 35025 ft | 579 kts | 104° |
| 2026-04-25 19:41 | 28.30964 | 36.93312 | 35049 ft | 577 kts | 105° |
| 2026-04-25 19:41 | 28.29709 | 37.00706 | 35043 ft | 577 kts | 105° |
| 2026-04-25 19:42 | 28.27939 | 37.11140 | 35057 ft | 578 kts | 105° |
| 2026-04-25 19:42 | 28.26427 | 37.20094 | 35076 ft | 578 kts | 105° |
| 2026-04-25 19:43 | 28.24929 | 37.28997 | 35070 ft | 578 kts | 104° |
| 2026-04-25 19:43 | 28.23433 | 37.37956 | 35074 ft | 578 kts | 105° |
| 2026-04-25 19:44 | 28.21936 | 37.46910 | 35069 ft | 578 kts | 105° |
| 2026-04-25 19:44 | 28.20453 | 37.55808 | 35054 ft | 578 kts | 104° |
| 2026-04-25 19:45 | 28.18945 | 37.64724 | 35065 ft | 579 kts | 105° |
| 2026-04-25 19:45 | 28.17321 | 37.73629 | 35069 ft | 578 kts | 106° |
| 2026-04-25 19:46 | 28.15729 | 37.82521 | 35068 ft | 579 kts | 105° |
| 2026-04-25 19:46 | 28.14143 | 37.91465 | 35060 ft | 579 kts | 105° |
| 2026-04-25 19:47 | 28.12576 | 38.00339 | 35038 ft | 578 kts | 105° |
| 2026-04-25 19:47 | 28.10996 | 38.09291 | 35024 ft | 579 kts | 105° |
| 2026-04-25 19:48 | 28.09430 | 38.18214 | 35036 ft | 579 kts | 105° |
| 2026-04-25 19:48 | 28.07871 | 38.27118 | 35031 ft | 580 kts | 105° |
| 2026-04-25 19:49 | 28.06575 | 38.34541 | 35030 ft | 579 kts | 105° |
| 2026-04-25 19:49 | 28.04766 | 38.44936 | 35054 ft | 579 kts | 105° |
| 2026-04-25 19:50 | 28.02404 | 38.58353 | 35025 ft | 580 kts | 105° |
| 2026-04-25 19:51 | 28.00749 | 38.67233 | 35033 ft | 581 kts | 105° |
| 2026-04-25 19:51 | 27.99124 | 38.76146 | 35032 ft | 580 kts | 105° |
| 2026-04-25 19:52 | 27.97491 | 38.85116 | 35033 ft | 580 kts | 105° |
| 2026-04-25 19:52 | 27.95882 | 38.93983 | 35043 ft | 580 kts | 105° |
| 2026-04-25 19:53 | 27.94273 | 39.02907 | 35047 ft | 579 kts | 105° |
| 2026-04-25 19:53 | 27.92652 | 39.11791 | 35052 ft | 580 kts | 106° |
| 2026-04-25 19:54 | 27.90919 | 39.20706 | 35050 ft | 579 kts | 107° |
| 2026-04-25 19:54 | 27.89213 | 39.29567 | 35048 ft | 580 kts | 106° |
| 2026-04-25 19:55 | 27.87516 | 39.38466 | 35055 ft | 581 kts | 106° |
| 2026-04-25 19:55 | 27.85836 | 39.47332 | 35068 ft | 580 kts | 105° |
| 2026-04-25 19:56 | 27.84154 | 39.56230 | 35077 ft | 580 kts | 106° |
| 2026-04-25 19:56 | 27.82473 | 39.65113 | 35076 ft | 579 kts | 106° |
| 2026-04-25 19:57 | 27.80803 | 39.73992 | 35072 ft | 579 kts | 106° |
| 2026-04-25 19:57 | 27.79140 | 39.82874 | 35076 ft | 580 kts | 106° |
| 2026-04-25 19:58 | 27.77476 | 39.91773 | 35069 ft | 580 kts | 106° |
| 2026-04-25 19:58 | 27.75824 | 40.00668 | 35071 ft | 579 kts | 106° |
| 2026-04-25 19:59 | 27.74065 | 40.09503 | 35070 ft | 579 kts | 107° |
| 2026-04-25 19:59 | 27.72291 | 40.18344 | 35069 ft | 580 kts | 106° |
| 2026-04-25 20:00 | 27.70540 | 40.27190 | 35070 ft | 579 kts | 106° |
| 2026-04-25 20:00 | 27.68798 | 40.36014 | 35056 ft | 579 kts | 106° |
| 2026-04-25 20:01 | 27.66197 | 40.49243 | 35063 ft | 579 kts | 106° |
| 2026-04-25 20:01 | 27.64458 | 40.58117 | 35058 ft | 579 kts | 105° |
| 2026-04-25 20:02 | 27.62730 | 40.66974 | 35047 ft | 579 kts | 106° |
| 2026-04-25 20:02 | 27.61022 | 40.75756 | 35041 ft | 578 kts | 106° |
| 2026-04-25 20:03 | 27.59312 | 40.84574 | 35035 ft | 577 kts | 106° |
| 2026-04-25 20:03 | 27.57600 | 40.93403 | 35047 ft | 578 kts | 107° |
| 2026-04-25 20:04 | 27.55788 | 41.02192 | 35038 ft | 577 kts | 107° |
| 2026-04-25 20:04 | 27.53978 | 41.10998 | 35047 ft | 577 kts | 106° |
| 2026-04-25 20:05 | 27.52194 | 41.19775 | 35062 ft | 577 kts | 106° |
| 2026-04-25 20:05 | 27.50412 | 41.28549 | 35083 ft | 576 kts | 106° |
| 2026-04-25 20:06 | 27.48635 | 41.37329 | 35098 ft | 577 kts | 106° |
| 2026-04-25 20:06 | 27.46865 | 41.46109 | 35100 ft | 576 kts | 106° |
| 2026-04-25 20:07 | 27.45100 | 41.54881 | 35108 ft | 576 kts | 106° |
| 2026-04-25 20:07 | 27.43353 | 41.63571 | 35087 ft | 575 kts | 107° |
| 2026-04-25 20:08 | 27.40759 | 41.72018 | 35068 ft | 564 kts | 123° |
| 2026-04-25 20:08 | 27.36750 | 41.79438 | 35060 ft | 557 kts | 129° |
| 2026-04-25 20:09 | 27.32647 | 41.86864 | 35080 ft | 559 kts | 128° |
| 2026-04-25 20:09 | 27.28642 | 41.94354 | 35086 ft | 558 kts | 127° |
| 2026-04-25 20:10 | 27.24674 | 42.01814 | 35087 ft | 559 kts | 127° |
| 2026-04-25 20:10 | 27.20690 | 42.09303 | 35092 ft | 560 kts | 127° |
| 2026-04-25 20:11 | 27.16703 | 42.16820 | 35083 ft | 561 kts | 127° |
| 2026-04-25 20:11 | 27.12722 | 42.24327 | 35088 ft | 561 kts | 127° |
| 2026-04-25 20:12 | 27.08753 | 42.31817 | 35096 ft | 561 kts | 127° |
| 2026-04-25 20:12 | 27.05429 | 42.38098 | 35088 ft | 561 kts | 127° |
| 2026-04-25 20:13 | 27.00792 | 42.46863 | 35087 ft | 561 kts | 127° |
| 2026-04-25 20:13 | 26.96827 | 42.54367 | 35080 ft | 562 kts | 127° |
| 2026-04-25 20:14 | 26.92785 | 42.61829 | 35075 ft | 560 kts | 128° |
| 2026-04-25 20:14 | 26.88747 | 42.69238 | 35062 ft | 560 kts | 127° |
| 2026-04-25 20:15 | 26.84830 | 42.76466 | 35071 ft | 561 kts | 127° |
| 2026-04-25 20:15 | 26.80815 | 42.83886 | 35069 ft | 559 kts | 127° |
| 2026-04-25 20:16 | 26.76796 | 42.91311 | 35057 ft | 559 kts | 127° |
| 2026-04-25 20:16 | 26.72784 | 42.98733 | 35056 ft | 559 kts | 127° |
| 2026-04-25 20:17 | 26.68774 | 43.06165 | 35063 ft | 558 kts | 127° |
| 2026-04-25 20:17 | 26.64762 | 43.13593 | 35072 ft | 558 kts | 127° |
| 2026-04-25 20:18 | 26.60764 | 43.21018 | 35074 ft | 557 kts | 127° |
| 2026-04-25 20:18 | 26.56768 | 43.28434 | 35071 ft | 558 kts | 127° |
| 2026-04-25 20:19 | 26.52791 | 43.35815 | 35074 ft | 558 kts | 127° |
| 2026-04-25 20:19 | 26.48737 | 43.43179 | 35076 ft | 558 kts | 127° |
| 2026-04-25 20:20 | 26.44681 | 43.50567 | 35074 ft | 558 kts | 127° |
| 2026-04-25 20:20 | 26.40641 | 43.57943 | 35076 ft | 557 kts | 127° |
| 2026-04-25 20:21 | 26.36624 | 43.65288 | 35065 ft | 556 kts | 127° |
| 2026-04-25 20:21 | 26.32602 | 43.72642 | 35070 ft | 556 kts | 127° |
| 2026-04-25 20:22 | 26.29753 | 43.79160 | 35066 ft | 567 kts | 112° |
| 2026-04-25 20:22 | 26.28471 | 43.84839 | 35065 ft | 573 kts | 100° |
| 2026-04-25 20:22 | 26.28135 | 43.89243 | 35068 ft | 575 kts | 91° |
| 2026-04-25 20:23 | 26.28984 | 43.98099 | 35073 ft | 574 kts | 79° |
| 2026-04-25 20:23 | 26.29785 | 44.06891 | 35081 ft | 574 kts | 87° |
| 2026-04-25 20:24 | 26.29954 | 44.15781 | 35077 ft | 573 kts | 89° |
| 2026-04-25 20:24 | 26.29994 | 44.24619 | 35086 ft | 572 kts | 90° |
| 2026-04-25 20:25 | 26.30038 | 44.33465 | 35085 ft | 572 kts | 89° |
| 2026-04-25 20:25 | 26.30087 | 44.42288 | 35084 ft | 570 kts | 89° |
| 2026-04-25 20:26 | 26.30147 | 44.51059 | 35091 ft | 570 kts | 89° |
| 2026-04-25 20:26 | 26.30202 | 44.59906 | 35090 ft | 569 kts | 89° |
| 2026-04-25 20:27 | 26.30275 | 44.68693 | 35092 ft | 568 kts | 90° |
| 2026-04-25 20:27 | 26.30335 | 44.77402 | 35118 ft | 568 kts | 89° |
| 2026-04-25 20:28 | 26.30311 | 44.86238 | 35114 ft | 569 kts | 90° |
| 2026-04-25 20:28 | 26.30263 | 44.95018 | 35128 ft | 567 kts | 90° |
| 2026-04-25 20:29 | 26.30238 | 45.03807 | 35126 ft | 566 kts | 90° |
| 2026-04-25 20:29 | 26.30220 | 45.12583 | 35121 ft | 565 kts | 90° |
| 2026-04-25 20:30 | 26.30208 | 45.21274 | 35113 ft | 566 kts | 89° |
| 2026-04-25 20:30 | 26.30192 | 45.30102 | 35123 ft | 566 kts | 89° |
| 2026-04-25 20:31 | 26.30183 | 45.38821 | 35119 ft | 566 kts | 89° |
| 2026-04-25 20:31 | 26.30193 | 45.47566 | 35116 ft | 565 kts | 89° |
| 2026-04-25 20:32 | 26.30194 | 45.56279 | 35116 ft | 564 kts | 89° |
| 2026-04-25 20:32 | 26.30204 | 45.65017 | 35120 ft | 564 kts | 89° |
| 2026-04-25 20:33 | 26.30197 | 45.73728 | 35121 ft | 564 kts | 90° |
| 2026-04-25 20:33 | 26.30106 | 45.80978 | 35112 ft | 564 kts | 91° |
| 2026-04-25 20:34 | 26.29995 | 45.91133 | 35113 ft | 563 kts | 90° |
| 2026-04-25 20:34 | 26.29916 | 45.99845 | 35100 ft | 562 kts | 90° |
| 2026-04-25 20:35 | 26.29840 | 46.08511 | 35117 ft | 562 kts | 90° |
| 2026-04-25 20:35 | 26.29776 | 46.17248 | 35116 ft | 561 kts | 90° |
| 2026-04-25 20:36 | 26.29708 | 46.25884 | 35114 ft | 562 kts | 90° |
| 2026-04-25 20:36 | 26.29649 | 46.34573 | 35115 ft | 562 kts | 90° |
| 2026-04-25 20:37 | 26.29596 | 46.43250 | 35121 ft | 562 kts | 90° |
| 2026-04-25 20:37 | 26.29548 | 46.51966 | 35114 ft | 562 kts | 90° |
| 2026-04-25 20:38 | 26.29501 | 46.60635 | 35103 ft | 562 kts | 90° |
| 2026-04-25 20:38 | 26.29413 | 46.69333 | 35105 ft | 561 kts | 91° |
| 2026-04-25 20:39 | 26.29275 | 46.77977 | 35111 ft | 561 kts | 91° |
| 2026-04-25 20:39 | 26.29178 | 46.85172 | 35118 ft | 561 kts | 91° |
| 2026-04-25 20:40 | 26.29053 | 46.95285 | 35098 ft | 560 kts | 90° |
| 2026-04-25 20:40 | 26.28944 | 47.03954 | 35113 ft | 560 kts | 91° |
| 2026-04-25 20:41 | 26.28846 | 47.12598 | 35114 ft | 560 kts | 90° |
| 2026-04-25 20:41 | 26.28333 | 47.21222 | 35100 ft | 562 kts | 102° |
| 2026-04-25 20:42 | 26.25800 | 47.29400 | 35115 ft | 559 kts | 121° |
| 2026-04-25 20:42 | 26.22020 | 47.36863 | 35095 ft | 556 kts | 122° |
| 2026-04-25 20:43 | 26.18456 | 47.44525 | 35100 ft | 558 kts | 120° |
| 2026-04-25 20:43 | 26.15050 | 47.52255 | 35088 ft | 561 kts | 119° |
| 2026-04-25 20:44 | 26.11631 | 47.60063 | 35064 ft | 563 kts | 119° |
| 2026-04-25 20:44 | 26.08222 | 47.67863 | 35070 ft | 565 kts | 119° |
| 2026-04-25 20:45 | 26.04788 | 47.75717 | 35087 ft | 565 kts | 119° |
| 2026-04-25 20:45 | 26.01357 | 47.83602 | 35088 ft | 566 kts | 119° |
| 2026-04-25 20:46 | 25.97924 | 47.91455 | 35078 ft | 566 kts | 118° |
| 2026-04-25 20:46 | 25.94512 | 47.99302 | 35077 ft | 566 kts | 118° |
| 2026-04-25 20:47 | 25.91095 | 48.07159 | 35075 ft | 566 kts | 118° |
| 2026-04-25 20:47 | 25.87632 | 48.15013 | 35058 ft | 566 kts | 119° |
| 2026-04-25 20:48 | 25.84122 | 48.22799 | 35075 ft | 564 kts | 119° |
| 2026-04-25 20:48 | 25.80641 | 48.30584 | 35078 ft | 563 kts | 119° |
| 2026-04-25 20:49 | 25.77184 | 48.38327 | 35056 ft | 561 kts | 119° |
| 2026-04-25 20:49 | 25.73734 | 48.46050 | 35031 ft | 561 kts | 118° |
| 2026-04-25 20:50 | 25.70284 | 48.53793 | 35029 ft | 561 kts | 118° |
| 2026-04-25 20:50 | 25.66837 | 48.61544 | 35022 ft | 560 kts | 118° |
| 2026-04-25 20:51 | 25.63393 | 48.69282 | 35015 ft | 559 kts | 118° |
| 2026-04-25 20:51 | 25.59967 | 48.77008 | 35003 ft | 558 kts | 118° |
| 2026-04-25 20:52 | 25.57121 | 48.83419 | 34993 ft | 558 kts | 118° |
| 2026-04-25 20:52 | 25.53118 | 48.92453 | 34981 ft | 559 kts | 118° |
| 2026-04-25 20:53 | 25.49655 | 49.00090 | 34984 ft | 558 kts | 119° |
| 2026-04-25 20:53 | 25.46187 | 49.07724 | 34974 ft | 557 kts | 119° |
| 2026-04-25 20:54 | 25.42727 | 49.15368 | 34982 ft | 557 kts | 118° |
| 2026-04-25 20:54 | 25.39267 | 49.23022 | 34981 ft | 557 kts | 119° |
| 2026-04-25 20:55 | 25.35817 | 49.30662 | 34982 ft | 556 kts | 118° |
| 2026-04-25 20:55 | 25.32352 | 49.38340 | 34970 ft | 555 kts | 118° |
| 2026-04-25 20:56 | 25.29010 | 49.45978 | 34945 ft | 556 kts | 112° |
| 2026-04-25 20:56 | 25.27178 | 49.54223 | 34956 ft | 558 kts | 94° |
| 2026-04-25 20:57 | 25.27308 | 49.62783 | 34965 ft | 555 kts | 84° |
| 2026-04-25 20:57 | 25.27569 | 49.71329 | 34955 ft | 554 kts | 88° |
| 2026-04-25 20:58 | 25.27542 | 49.79783 | 34945 ft | 553 kts | 89° |
| 2026-04-25 20:58 | 25.27448 | 49.88284 | 34948 ft | 553 kts | 89° |
| 2026-04-25 20:59 | 25.27351 | 49.96744 | 34942 ft | 552 kts | 89° |
| 2026-04-25 20:59 | 25.27267 | 50.05223 | 34938 ft | 552 kts | 89° |
| 2026-04-25 21:00 | 25.27197 | 50.12239 | 34932 ft | 551 kts | 89° |
| 2026-04-25 21:01 | 25.27066 | 50.26311 | 34944 ft | 551 kts | 89° |
| 2026-04-25 21:01 | 25.26993 | 50.34763 | 34943 ft | 550 kts | 89° |
| 2026-04-25 21:02 | 25.26929 | 50.43175 | 34943 ft | 549 kts | 89° |
| 2026-04-25 21:02 | 25.26830 | 50.51555 | 34931 ft | 550 kts | 90° |
| 2026-04-25 21:03 | 25.26640 | 50.60007 | 34943 ft | 550 kts | 89° |
| 2026-04-25 21:03 | 25.26483 | 50.68426 | 34941 ft | 550 kts | 90° |
| 2026-04-25 21:04 | 25.26335 | 50.76805 | 34921 ft | 548 kts | 90° |
| 2026-04-25 21:04 | 25.26186 | 50.85192 | 34935 ft | 548 kts | 90° |
| 2026-04-25 21:05 | 25.26042 | 50.93609 | 34923 ft | 548 kts | 89° |
| 2026-04-25 21:05 | 25.25911 | 51.01976 | 34918 ft | 548 kts | 90° |
| 2026-04-25 21:06 | 25.25773 | 51.10370 | 34925 ft | 546 kts | 89° |
| 2026-04-25 21:06 | 25.25647 | 51.18688 | 34936 ft | 546 kts | 89° |
| 2026-04-25 21:07 | 25.25526 | 51.27060 | 34927 ft | 545 kts | 89° |
| 2026-04-25 21:07 | 25.25407 | 51.35426 | 34924 ft | 544 kts | 89° |
| 2026-04-25 21:08 | 25.25270 | 51.43729 | 34916 ft | 544 kts | 89° |
| 2026-04-25 21:08 | 25.25084 | 51.52036 | 34917 ft | 543 kts | 89° |
| 2026-04-25 21:09 | 25.25705 | 51.64429 | 34908 ft | 537 kts | 74° |
| 2026-04-25 21:09 | 25.27581 | 51.72372 | 34902 ft | 535 kts | 71° |
| 2026-04-25 21:10 | 25.29477 | 51.80250 | 34893 ft | 533 kts | 72° |
| 2026-04-25 21:10 | 25.31332 | 51.88175 | 34886 ft | 531 kts | 72° |
| 2026-04-25 21:11 | 25.33160 | 51.96029 | 34890 ft | 530 kts | 72° |
| 2026-04-25 21:11 | 25.35003 | 52.03947 | 34885 ft | 530 kts | 72° |
| 2026-04-25 21:12 | 25.36832 | 52.11775 | 34896 ft | 528 kts | 72° |
| 2026-04-25 21:12 | 25.38371 | 52.18345 | 34900 ft | 528 kts | 72° |
| 2026-04-25 21:13 | 25.40519 | 52.27511 | 34891 ft | 529 kts | 72° |
| 2026-04-25 21:13 | 25.42366 | 52.35356 | 34889 ft | 529 kts | 72° |
| 2026-04-25 21:14 | 25.44210 | 52.43185 | 34894 ft | 528 kts | 72° |
| 2026-04-25 21:14 | 25.46068 | 52.51053 | 34894 ft | 528 kts | 72° |
| 2026-04-25 21:15 | 25.47912 | 52.58888 | 34892 ft | 527 kts | 73° |
| 2026-04-25 21:15 | 25.49658 | 52.66725 | 34885 ft | 527 kts | 73° |
| 2026-04-25 21:16 | 25.51419 | 52.74592 | 34883 ft | 527 kts | 73° |
| 2026-04-25 21:16 | 25.53193 | 52.82471 | 34878 ft | 527 kts | 73° |
| 2026-04-25 21:17 | 25.54958 | 52.90271 | 34873 ft | 526 kts | 73° |
| 2026-04-25 21:17 | 25.56737 | 52.98125 | 34869 ft | 525 kts | 73° |
| 2026-04-25 21:18 | 25.58514 | 53.05956 | 34864 ft | 525 kts | 73° |
| 2026-04-25 21:18 | 25.60295 | 53.13782 | 34874 ft | 525 kts | 73° |
| 2026-04-25 21:19 | 25.62080 | 53.21595 | 34864 ft | 525 kts | 73° |
| 2026-04-25 21:19 | 25.63868 | 53.29406 | 34855 ft | 524 kts | 73° |
| 2026-04-25 21:20 | 25.65358 | 53.35921 | 34849 ft | 524 kts | 73° |
| 2026-04-25 21:20 | 25.67447 | 53.45009 | 34862 ft | 523 kts | 73° |
| 2026-04-25 21:21 | 25.69163 | 53.52800 | 34857 ft | 522 kts | 73° |
| 2026-04-25 21:21 | 25.70853 | 53.60634 | 34854 ft | 522 kts | 73° |
| 2026-04-25 21:22 | 25.72551 | 53.68411 | 34858 ft | 522 kts | 73° |
| 2026-04-25 21:22 | 25.74259 | 53.76212 | 34859 ft | 522 kts | 73° |
| 2026-04-25 21:23 | 25.75970 | 53.84016 | 34850 ft | 521 kts | 73° |
| 2026-04-25 21:23 | 25.77678 | 53.91770 | 34847 ft | 521 kts | 73° |
| 2026-04-25 21:24 | 25.79400 | 53.99570 | 34844 ft | 521 kts | 73° |
| 2026-04-25 21:24 | 25.81124 | 54.07378 | 34841 ft | 519 kts | 73° |
| 2026-04-25 21:25 | 25.82839 | 54.15091 | 34846 ft | 519 kts | 73° |
| 2026-04-25 21:25 | 25.84586 | 54.22884 | 34839 ft | 519 kts | 73° |
| 2026-04-25 21:26 | 25.86325 | 54.30604 | 34844 ft | 519 kts | 73° |
| 2026-04-25 21:26 | 25.88061 | 54.38369 | 34835 ft | 520 kts | 73° |
| 2026-04-25 21:27 | 25.89750 | 54.46204 | 34837 ft | 521 kts | 73° |
| 2026-04-25 21:27 | 25.90894 | 54.54086 | 34823 ft | 523 kts | 87° |
| 2026-04-25 21:28 | 25.90735 | 54.58123 | 33911 ft | 528 kts | 96° |
| 2026-04-25 21:28 | 25.90018 | 54.62087 | 32801 ft | 531 kts | 107° |
| 2026-04-25 21:28 | 25.88752 | 54.65927 | 31878 ft | 529 kts | 117° |
| 2026-04-25 21:28 | 25.86986 | 54.69504 | 30935 ft | 523 kts | 126° |
| 2026-04-25 21:29 | 25.84877 | 54.72677 | 29304 ft | 520 kts | 136° |
| 2026-04-25 21:29 | 25.82347 | 54.75505 | 27689 ft | 512 kts | 144° |
| 2026-04-25 21:29 | 25.79524 | 54.77836 | 25851 ft | 508 kts | 153° |
| 2026-04-25 21:29 | 25.76438 | 54.79583 | 24158 ft | 499 kts | 161° |
| 2026-04-25 21:30 | 25.73272 | 54.80940 | 22789 ft | 488 kts | 164° |
| 2026-04-25 21:30 | 25.70110 | 54.82187 | 21500 ft | 478 kts | 165° |
| 2026-04-25 21:30 | 25.67004 | 54.83409 | 20230 ft | 469 kts | 162° |
| 2026-04-25 21:30 | 25.65039 | 54.84383 | 19383 ft | 465 kts | 155° |
| 2026-04-25 21:31 | 25.61626 | 54.87110 | 17741 ft | 460 kts | 137° |
| 2026-04-25 21:31 | 25.59727 | 54.89883 | 17050 ft | 442 kts | 122° |
| 2026-04-25 21:31 | 25.58476 | 54.92889 | 16423 ft | 423 kts | 114° |
| 2026-04-25 21:31 | 25.57414 | 54.95864 | 15808 ft | 404 kts | 114° |
| 2026-04-25 21:32 | 25.56390 | 54.98675 | 15212 ft | 388 kts | 115° |
| 2026-04-25 21:32 | 25.55374 | 55.01368 | 14648 ft | 372 kts | 115° |
| 2026-04-25 21:32 | 25.54349 | 55.03906 | 14122 ft | 357 kts | 120° |
| 2026-04-25 21:32 | 25.53179 | 55.06268 | 13651 ft | 345 kts | 123° |
| 2026-04-25 21:33 | 25.51974 | 55.08528 | 13172 ft | 342 kts | 123° |
| 2026-04-25 21:33 | 25.50766 | 55.10808 | 12671 ft | 340 kts | 123° |
| 2026-04-25 21:33 | 25.49583 | 55.13063 | 12166 ft | 338 kts | 122° |
| 2026-04-25 21:33 | 25.48429 | 55.15286 | 11666 ft | 336 kts | 122° |
| 2026-04-25 21:34 | 25.47270 | 55.17520 | 11200 ft | 334 kts | 122° |
| 2026-04-25 21:34 | 25.46056 | 55.19687 | 10727 ft | 330 kts | 127° |
| 2026-04-25 21:34 | 25.44645 | 55.21692 | 10285 ft | 324 kts | 134° |
| 2026-04-25 21:34 | 25.43163 | 55.23494 | 9988 ft | 314 kts | 135° |
| 2026-04-25 21:35 | 25.41689 | 55.25263 | 9832 ft | 305 kts | 135° |
| 2026-04-25 21:35 | 25.40265 | 55.26986 | 9530 ft | 301 kts | 134° |
| 2026-04-25 21:35 | 25.38899 | 55.28656 | 9351 ft | 290 kts | 134° |
| 2026-04-25 21:35 | 25.37556 | 55.30306 | 9322 ft | 279 kts | 134° |
| 2026-04-25 21:36 | 25.36276 | 55.31861 | 9300 ft | 269 kts | 137° |
| 2026-04-25 21:36 | 25.34867 | 55.33188 | 9179 ft | 262 kts | 150° |
| 2026-04-25 21:36 | 25.33280 | 55.34160 | 8873 ft | 254 kts | 156° |
| 2026-04-25 21:36 | 25.31741 | 55.35006 | 8646 ft | 245 kts | 156° |
| 2026-04-25 21:37 | 25.30205 | 55.35866 | 8450 ft | 245 kts | 155° |
| 2026-04-25 21:37 | 25.29194 | 55.36443 | 8294 ft | 246 kts | 155° |
| 2026-04-25 21:37 | 25.27155 | 55.37624 | 7940 ft | 247 kts | 154° |
| 2026-04-25 21:37 | 25.25627 | 55.38518 | 7669 ft | 247 kts | 154° |
| 2026-04-25 21:38 | 25.24113 | 55.39404 | 7399 ft | 246 kts | 154° |
| 2026-04-25 21:38 | 25.22593 | 55.40293 | 7127 ft | 246 kts | 153° |
| 2026-04-25 21:38 | 25.21085 | 55.41177 | 6853 ft | 246 kts | 153° |
| 2026-04-25 21:38 | 25.19557 | 55.42073 | 6572 ft | 246 kts | 153° |
| 2026-04-25 21:39 | 25.18046 | 55.42958 | 6334 ft | 245 kts | 153° |
| 2026-04-25 21:39 | 25.16525 | 55.43847 | 6284 ft | 246 kts | 153° |
| 2026-04-25 21:39 | 25.14997 | 55.44741 | 6201 ft | 247 kts | 153° |
| 2026-04-25 21:39 | 25.13470 | 55.45634 | 6122 ft | 247 kts | 153° |
| 2026-04-25 21:40 | 25.11962 | 55.46533 | 6052 ft | 248 kts | 149° |
| 2026-04-25 21:40 | 25.10620 | 55.47742 | 5984 ft | 249 kts | 129° |
| 2026-04-25 21:40 | 25.09656 | 55.49342 | 5913 ft | 250 kts | 118° |
| 2026-04-25 21:40 | 25.08831 | 55.50988 | 5827 ft | 241 kts | 118° |
| 2026-04-25 21:41 | 25.08016 | 55.52573 | 5746 ft | 231 kts | 120° |
| 2026-04-25 21:41 | 25.07221 | 55.54054 | 5675 ft | 222 kts | 121° |
| 2026-04-25 21:41 | 25.06423 | 55.55499 | 5602 ft | 218 kts | 121° |
| 2026-04-25 21:41 | 25.05633 | 55.56918 | 5529 ft | 217 kts | 118° |
| 2026-04-25 21:42 | 25.05222 | 55.58478 | 5188 ft | 214 kts | 85° |
| 2026-04-25 21:42 | 25.05682 | 55.59976 | 5003 ft | 207 kts | 47° |
| 2026-04-25 21:42 | 25.06828 | 55.60854 | 4888 ft | 199 kts | 11° |
| 2026-04-25 21:42 | 25.08182 | 55.60792 | 4721 ft | 194 kts | 336° |
| 2026-04-25 21:43 | 25.09310 | 55.60004 | 4486 ft | 192 kts | 317° |
| 2026-04-25 21:43 | 25.10365 | 55.59139 | 4243 ft | 190 kts | 328° |
| 2026-04-25 21:43 | 25.11527 | 55.58430 | 3992 ft | 189 kts | 331° |
| 2026-04-25 21:43 | 25.12691 | 55.57752 | 3734 ft | 185 kts | 331° |
| 2026-04-25 21:44 | 25.13761 | 55.57069 | 3617 ft | 170 kts | 320° |
| 2026-04-25 21:44 | 25.14573 | 55.56136 | 3495 ft | 166 kts | 308° |
| 2026-04-25 21:44 | 25.15857 | 55.54093 | 3164 ft | 160 kts | 304° |
| 2026-04-25 21:45 | 25.16459 | 55.53061 | 2990 ft | 160 kts | 303° |
| 2026-04-25 21:45 | 25.16851 | 55.52374 | 2859 ft | 160 kts | 303° |
| 2026-04-25 21:45 | 25.17640 | 55.50974 | 2598 ft | 160 kts | 302° |
| 2026-04-25 21:45 | 25.18227 | 55.49920 | 2397 ft | 160 kts | 302° |
| 2026-04-25 21:46 | 25.18800 | 55.48889 | 2175 ft | 154 kts | 302° |
| 2026-04-25 21:46 | 25.19353 | 55.47889 | 2025 ft | 150 kts | 302° |
| 2026-04-25 21:46 | 25.19899 | 55.46905 | 1812 ft | 152 kts | 302° |
| 2026-04-25 21:46 | 25.20452 | 55.45906 | 1618 ft | 150 kts | 302° |
| 2026-04-25 21:47 | 25.20999 | 55.44915 | 1437 ft | 152 kts | 302° |
| 2026-04-25 21:47 | 25.21548 | 55.43924 | 1239 ft | 152 kts | 302° |
| 2026-04-25 21:47 | 25.22101 | 55.42927 | 1045 ft | 152 kts | 302° |
| 2026-04-25 21:47 | 25.22656 | 55.41909 | 844 ft | 155 kts | 300° |
| 2026-04-25 21:48 | 25.23202 | 55.40890 | 608 ft | 155 kts | 301° |
| 2026-04-25 21:48 | 25.23768 | 55.39872 | 406 ft | 156 kts | 302° |
| 2026-04-25 21:48 | 25.24345 | 55.38851 | 214 ft | 157 kts | 302° |
| 2026-04-25 21:48 | 25.24920 | 55.37820 | 85 ft | 153 kts | 301° |
| 2026-04-25 21:49 | 25.25405 | 55.36946 | 73 ft | 109 kts | 301° |
| 2026-04-25 21:49 | 25.25721 | 55.36374 | 73 ft | 64 kts | 302° |
| 2026-04-25 21:49 | 25.25887 | 55.36078 | 73 ft | 24 kts | 302° |
| 2026-04-25 21:49 | 25.26003 | 55.35942 | 73 ft | 24 kts | 329° |
| 2026-04-25 21:50 | 25.26149 | 55.35852 | 73 ft | 20 kts | 331° |
| 2026-04-25 21:50 | 25.26224 | 55.35881 | 73 ft | 13 kts | 58° |
| 2026-04-25 21:50 | 25.26249 | 55.35939 | 73 ft | 5 kts | 94° |
| 2026-04-25 21:50 | 25.26227 | 55.35999 | 73 ft | 32 kts | 120° |
| 2026-04-25 21:51 | 25.26071 | 55.36285 | 73 ft | 31 kts | 121° |
| 2026-04-25 21:51 | 25.25956 | 55.36489 | 73 ft | 30 kts | 121° |
| 2026-04-25 21:51 | 25.25968 | 55.36599 | 73 ft | 7 kts | 42° |
| 2026-04-25 21:51 | 25.25987 | 55.36613 | 73 ft | 0 kts | 30° |